sensor_id;sensor_type;location;lat;lon;timestamp;P1;durP1;ratioP1;P2;durP2;ratioP2
42906;SDS011;28552;51.146;6.576;2022-12-07T00:00:30;18.55;;;9.05;;
42906;SDS011;28552;51.146;6.576;2022-12-07T00:03:31;18.42;;;10.32;;
42906;SDS011;28552;51.146;6.576;2022-12-07T00:06:32;19.52;;;8.48;;
42906;SDS011;28552;51.146;6.576;2022-12-07T00:09:34;22.23;;;8.60;;
42906;SDS011;28552;51.146;6.576;2022-12-07T00:12:34;16.13;;;8.43;;
42906;SDS011;28552;51.146;6.576;2022-12-07T00:15:35;21.48;;;9.48;;
42906;SDS011;28552;51.146;6.576;2022-12-07T00:18:36;18.27;;;8.48;;
42906;SDS011;28552;51.146;6.576;2022-12-07T00:21:37;17.80;;;7.87;;
42906;SDS011;28552;51.146;6.576;2022-12-07T00:24:38;18.38;;;8.35;;
42906;SDS011;28552;51.146;6.576;2022-12-07T00:27:38;17.70;;;8.33;;
42906;SDS011;28552;51.146;6.576;2022-12-07T00:30:38;20.30;;;9.18;;
42906;SDS011;28552;51.146;6.576;2022-12-07T00:33:39;23.23;;;11.23;;
42906;SDS011;28552;51.146;6.576;2022-12-07T00:36:40;22.27;;;10.93;;
42906;SDS011;28552;51.146;6.576;2022-12-07T00:39:40;21.38;;;9.35;;
42906;SDS011;28552;51.146;6.576;2022-12-07T00:42:41;20.10;;;9.82;;
42906;SDS011;28552;51.146;6.576;2022-12-07T00:45:41;26.17;;;10.93;;
42906;SDS011;28552;51.146;6.576;2022-12-07T00:48:42;25.75;;;11.63;;
42906;SDS011;28552;51.146;6.576;2022-12-07T00:51:42;25.38;;;11.98;;
42906;SDS011;28552;51.146;6.576;2022-12-07T00:54:43;24.73;;;11.98;;
42906;SDS011;28552;51.146;6.576;2022-12-07T00:57:43;27.23;;;10.88;;
42906;SDS011;28552;51.146;6.576;2022-12-07T01:00:44;23.13;;;11.10;;
42906;SDS011;28552;51.146;6.576;2022-12-07T01:03:45;27.92;;;13.25;;
42906;SDS011;28552;51.146;6.576;2022-12-07T01:06:45;28.50;;;12.98;;
42906;SDS011;28552;51.146;6.576;2022-12-07T01:09:46;25.30;;;12.93;;
42906;SDS011;28552;51.146;6.576;2022-12-07T01:12:46;21.05;;;10.65;;
42906;SDS011;28552;51.146;6.576;2022-12-07T01:15:47;29.20;;;14.25;;
42906;SDS011;28552;51.146;6.576;2022-12-07T01:18:48;34.45;;;14.18;;
42906;SDS011;28552;51.146;6.576;2022-12-07T01:21:52;31.13;;;13.30;;
42906;SDS011;28552;51.146;6.576;2022-12-07T01:24:52;29.85;;;12.45;;
42906;SDS011;28552;51.146;6.576;2022-12-07T01:27:53;26.17;;;12.80;;
42906;SDS011;28552;51.146;6.576;2022-12-07T01:30:57;28.42;;;13.50;;
42906;SDS011;28552;51.146;6.576;2022-12-07T01:34:00;27.00;;;11.85;;
42906;SDS011;28552;51.146;6.576;2022-12-07T01:37:01;29.42;;;12.98;;
42906;SDS011;28552;51.146;6.576;2022-12-07T01:40:02;26.75;;;12.13;;
42906;SDS011;28552;51.146;6.576;2022-12-07T01:43:08;26.85;;;12.75;;
42906;SDS011;28552;51.146;6.576;2022-12-07T01:46:23;25.13;;;12.50;;
42906;SDS011;28552;51.146;6.576;2022-12-07T01:52:42;31.55;;;12.65;;
42906;SDS011;28552;51.146;6.576;2022-12-07T01:55:46;29.30;;;12.98;;
42906;SDS011;28552;51.146;6.576;2022-12-07T01:58:50;25.63;;;12.02;;
42906;SDS011;28552;51.146;6.576;2022-12-07T02:01:53;21.52;;;10.35;;
42906;SDS011;28552;51.146;6.576;2022-12-07T02:04:55;25.95;;;13.10;;
42906;SDS011;28552;51.146;6.576;2022-12-07T02:07:57;25.60;;;13.10;;
42906;SDS011;28552;51.146;6.576;2022-12-07T02:10:59;28.45;;;12.82;;
42906;SDS011;28552;51.146;6.576;2022-12-07T02:14:01;24.95;;;12.15;;
42906;SDS011;28552;51.146;6.576;2022-12-07T02:17:04;24.92;;;12.93;;
42906;SDS011;28552;51.146;6.576;2022-12-07T02:20:30;25.67;;;11.38;;
42906;SDS011;28552;51.146;6.576;2022-12-07T02:27:08;24.23;;;13.30;;
42906;SDS011;28552;51.146;6.576;2022-12-07T02:30:31;25.17;;;13.32;;
42906;SDS011;28552;51.146;6.576;2022-12-07T02:33:36;24.33;;;11.77;;
42906;SDS011;28552;51.146;6.576;2022-12-07T02:36:43;26.85;;;13.25;;
42906;SDS011;28552;51.146;6.576;2022-12-07T02:39:53;28.58;;;13.82;;
42906;SDS011;28552;51.146;6.576;2022-12-07T02:43:04;28.42;;;13.43;;
42906;SDS011;28552;51.146;6.576;2022-12-07T02:46:13;33.65;;;14.25;;
42906;SDS011;28552;51.146;6.576;2022-12-07T02:49:16;28.27;;;14.38;;
42906;SDS011;28552;51.146;6.576;2022-12-07T02:52:18;35.55;;;15.10;;
42906;SDS011;28552;51.146;6.576;2022-12-07T02:55:19;26.95;;;13.00;;
42906;SDS011;28552;51.146;6.576;2022-12-07T03:08:52;29.08;;;12.48;;
42906;SDS011;28552;51.146;6.576;2022-12-07T03:12:06;31.25;;;13.40;;
42906;SDS011;28552;51.146;6.576;2022-12-07T03:15:22;23.73;;;11.07;;
42906;SDS011;28552;51.146;6.576;2022-12-07T03:18:30;21.65;;;11.20;;
42906;SDS011;28552;51.146;6.576;2022-12-07T03:21:37;24.00;;;12.75;;
42906;SDS011;28552;51.146;6.576;2022-12-07T03:24:43;25.40;;;13.02;;
42906;SDS011;28552;51.146;6.576;2022-12-07T03:27:53;25.60;;;11.80;;
42906;SDS011;28552;51.146;6.576;2022-12-07T03:31:06;27.50;;;12.88;;
42906;SDS011;28552;51.146;6.576;2022-12-07T03:34:21;28.23;;;12.68;;
42906;SDS011;28552;51.146;6.576;2022-12-07T03:37:31;21.77;;;11.48;;
42906;SDS011;28552;51.146;6.576;2022-12-07T03:40:37;21.77;;;10.20;;
42906;SDS011;28552;51.146;6.576;2022-12-07T03:43:43;20.13;;;10.57;;
42906;SDS011;28552;51.146;6.576;2022-12-07T03:46:49;21.00;;;9.48;;
42906;SDS011;28552;51.146;6.576;2022-12-07T03:49:54;18.75;;;10.23;;
42906;SDS011;28552;51.146;6.576;2022-12-07T03:52:58;20.52;;;10.57;;
42906;SDS011;28552;51.146;6.576;2022-12-07T03:56:03;19.70;;;10.02;;
42906;SDS011;28552;51.146;6.576;2022-12-07T03:59:05;19.65;;;9.55;;
42906;SDS011;28552;51.146;6.576;2022-12-07T04:02:07;25.48;;;11.05;;
42906;SDS011;28552;51.146;6.576;2022-12-07T04:05:08;21.80;;;10.07;;
42906;SDS011;28552;51.146;6.576;2022-12-07T04:08:08;21.17;;;9.88;;
42906;SDS011;28552;51.146;6.576;2022-12-07T04:11:09;23.65;;;10.10;;
42906;SDS011;28552;51.146;6.576;2022-12-07T04:14:10;24.17;;;10.35;;
42906;SDS011;28552;51.146;6.576;2022-12-07T04:17:18;21.60;;;10.35;;
42906;SDS011;28552;51.146;6.576;2022-12-07T04:20:18;21.27;;;9.90;;
42906;SDS011;28552;51.146;6.576;2022-12-07T04:23:19;21.53;;;10.00;;
42906;SDS011;28552;51.146;6.576;2022-12-07T04:26:20;17.48;;;8.75;;
42906;SDS011;28552;51.146;6.576;2022-12-07T04:29:20;21.33;;;9.98;;
42906;SDS011;28552;51.146;6.576;2022-12-07T04:32:22;25.60;;;9.82;;
42906;SDS011;28552;51.146;6.576;2022-12-07T04:35:23;17.00;;;8.20;;
42906;SDS011;28552;51.146;6.576;2022-12-07T04:38:24;21.27;;;8.88;;
42906;SDS011;28552;51.146;6.576;2022-12-07T04:41:24;21.52;;;10.63;;
42906;SDS011;28552;51.146;6.576;2022-12-07T04:44:28;18.52;;;8.30;;
42906;SDS011;28552;51.146;6.576;2022-12-07T04:47:29;17.77;;;8.07;;
42906;SDS011;28552;51.146;6.576;2022-12-07T04:50:30;18.40;;;8.77;;
42906;SDS011;28552;51.146;6.576;2022-12-07T04:53:30;15.73;;;7.93;;
42906;SDS011;28552;51.146;6.576;2022-12-07T04:56:31;18.10;;;7.93;;
42906;SDS011;28552;51.146;6.576;2022-12-07T04:59:32;14.63;;;8.32;;
42906;SDS011;28552;51.146;6.576;2022-12-07T05:02:32;15.68;;;7.65;;
42906;SDS011;28552;51.146;6.576;2022-12-07T05:05:33;14.48;;;7.20;;
42906;SDS011;28552;51.146;6.576;2022-12-07T05:08:33;18.92;;;7.97;;
42906;SDS011;28552;51.146;6.576;2022-12-07T05:11:34;15.98;;;8.05;;
42906;SDS011;28552;51.146;6.576;2022-12-07T05:14:37;15.20;;;7.90;;
42906;SDS011;28552;51.146;6.576;2022-12-07T05:17:38;15.80;;;7.57;;
42906;SDS011;28552;51.146;6.576;2022-12-07T05:20:39;16.52;;;7.40;;
42906;SDS011;28552;51.146;6.576;2022-12-07T05:23:40;16.92;;;8.02;;
42906;SDS011;28552;51.146;6.576;2022-12-07T05:26:41;19.35;;;8.88;;
42906;SDS011;28552;51.146;6.576;2022-12-07T05:29:42;12.80;;;6.88;;
42906;SDS011;28552;51.146;6.576;2022-12-07T05:32:42;14.25;;;7.00;;
42906;SDS011;28552;51.146;6.576;2022-12-07T05:35:43;18.35;;;8.23;;
42906;SDS011;28552;51.146;6.576;2022-12-07T05:38:44;16.65;;;8.68;;
42906;SDS011;28552;51.146;6.576;2022-12-07T05:41:44;13.65;;;7.13;;
42906;SDS011;28552;51.146;6.576;2022-12-07T05:45:00;14.80;;;7.95;;
42906;SDS011;28552;51.146;6.576;2022-12-07T05:48:00;16.92;;;8.77;;
42906;SDS011;28552;51.146;6.576;2022-12-07T05:51:01;28.08;;;9.27;;
42906;SDS011;28552;51.146;6.576;2022-12-07T05:54:01;19.65;;;10.00;;
42906;SDS011;28552;51.146;6.576;2022-12-07T05:57:02;17.27;;;8.43;;
42906;SDS011;28552;51.146;6.576;2022-12-07T06:00:03;16.10;;;8.68;;
42906;SDS011;28552;51.146;6.576;2022-12-07T06:03:04;16.33;;;8.18;;
42906;SDS011;28552;51.146;6.576;2022-12-07T06:06:05;18.02;;;8.80;;
42906;SDS011;28552;51.146;6.576;2022-12-07T06:09:05;20.90;;;10.05;;
42906;SDS011;28552;51.146;6.576;2022-12-07T06:12:06;19.85;;;9.40;;
42906;SDS011;28552;51.146;6.576;2022-12-07T06:15:24;15.38;;;7.97;;
42906;SDS011;28552;51.146;6.576;2022-12-07T06:18:24;15.52;;;7.63;;
42906;SDS011;28552;51.146;6.576;2022-12-07T06:21:25;16.23;;;8.77;;
42906;SDS011;28552;51.146;6.576;2022-12-07T06:24:26;16.40;;;7.80;;
42906;SDS011;28552;51.146;6.576;2022-12-07T06:27:27;15.88;;;8.80;;
42906;SDS011;28552;51.146;6.576;2022-12-07T06:30:27;17.30;;;8.02;;
42906;SDS011;28552;51.146;6.576;2022-12-07T06:33:28;17.90;;;7.82;;
42906;SDS011;28552;51.146;6.576;2022-12-07T06:36:29;20.42;;;9.80;;
42906;SDS011;28552;51.146;6.576;2022-12-07T06:39:30;14.70;;;7.60;;
42906;SDS011;28552;51.146;6.576;2022-12-07T06:42:30;18.00;;;8.63;;
42906;SDS011;28552;51.146;6.576;2022-12-07T06:45:31;17.30;;;8.65;;
42906;SDS011;28552;51.146;6.576;2022-12-07T06:48:31;16.52;;;8.48;;
42906;SDS011;28552;51.146;6.576;2022-12-07T06:51:32;15.60;;;7.60;;
42906;SDS011;28552;51.146;6.576;2022-12-07T06:54:36;15.73;;;7.38;;
42906;SDS011;28552;51.146;6.576;2022-12-07T06:57:36;21.43;;;7.87;;
42906;SDS011;28552;51.146;6.576;2022-12-07T07:00:37;16.33;;;7.57;;
42906;SDS011;28552;51.146;6.576;2022-12-07T07:03:37;16.02;;;7.25;;
42906;SDS011;28552;51.146;6.576;2022-12-07T07:06:38;12.23;;;6.53;;
42906;SDS011;28552;51.146;6.576;2022-12-07T07:09:39;15.60;;;7.20;;
42906;SDS011;28552;51.146;6.576;2022-12-07T07:12:39;14.57;;;6.65;;
42906;SDS011;28552;51.146;6.576;2022-12-07T07:15:40;14.68;;;7.35;;
42906;SDS011;28552;51.146;6.576;2022-12-07T07:18:40;11.48;;;6.55;;
42906;SDS011;28552;51.146;6.576;2022-12-07T07:21:41;16.67;;;7.03;;
42906;SDS011;28552;51.146;6.576;2022-12-07T07:24:41;14.57;;;6.40;;
42906;SDS011;28552;51.146;6.576;2022-12-07T07:27:42;14.07;;;6.47;;
42906;SDS011;28552;51.146;6.576;2022-12-07T07:30:42;14.43;;;6.63;;
42906;SDS011;28552;51.146;6.576;2022-12-07T07:33:43;20.10;;;7.50;;
42906;SDS011;28552;51.146;6.576;2022-12-07T07:36:46;13.73;;;6.60;;
42906;SDS011;28552;51.146;6.576;2022-12-07T07:39:47;14.80;;;7.13;;
42906;SDS011;28552;51.146;6.576;2022-12-07T07:42:48;18.60;;;7.87;;
42906;SDS011;28552;51.146;6.576;2022-12-07T07:45:49;17.20;;;8.00;;
42906;SDS011;28552;51.146;6.576;2022-12-07T07:48:50;19.13;;;8.33;;
42906;SDS011;28552;51.146;6.576;2022-12-07T07:51:51;15.07;;;8.23;;
42906;SDS011;28552;51.146;6.576;2022-12-07T07:54:51;18.03;;;8.70;;
42906;SDS011;28552;51.146;6.576;2022-12-07T07:57:53;18.47;;;7.93;;
42906;SDS011;28552;51.146;6.576;2022-12-07T08:00:54;18.02;;;7.82;;
42906;SDS011;28552;51.146;6.576;2022-12-07T08:03:54;21.60;;;9.47;;
42906;SDS011;28552;51.146;6.576;2022-12-07T08:06:56;16.90;;;8.93;;
42906;SDS011;28552;51.146;6.576;2022-12-07T08:09:56;18.67;;;8.07;;
42906;SDS011;28552;51.146;6.576;2022-12-07T08:12:57;19.03;;;8.90;;
42906;SDS011;28552;51.146;6.576;2022-12-07T08:16:13;16.73;;;9.53;;
42906;SDS011;28552;51.146;6.576;2022-12-07T08:19:15;21.37;;;10.90;;
42906;SDS011;28552;51.146;6.576;2022-12-07T08:22:15;18.87;;;9.83;;
42906;SDS011;28552;51.146;6.576;2022-12-07T08:25:16;23.63;;;11.43;;
42906;SDS011;28552;51.146;6.576;2022-12-07T08:28:16;24.57;;;9.97;;
42906;SDS011;28552;51.146;6.576;2022-12-07T08:31:17;23.40;;;10.03;;
42906;SDS011;28552;51.146;6.576;2022-12-07T08:34:18;27.83;;;11.70;;
42906;SDS011;28552;51.146;6.576;2022-12-07T08:37:19;22.77;;;10.85;;
42906;SDS011;28552;51.146;6.576;2022-12-07T08:40:19;24.85;;;10.32;;
42906;SDS011;28552;51.146;6.576;2022-12-07T08:43:21;21.75;;;9.90;;
42906;SDS011;28552;51.146;6.576;2022-12-07T08:46:23;27.30;;;10.32;;
42906;SDS011;28552;51.146;6.576;2022-12-07T08:49:32;21.13;;;9.38;;
42906;SDS011;28552;51.146;6.576;2022-12-07T08:52:35;20.80;;;9.80;;
42906;SDS011;28552;51.146;6.576;2022-12-07T08:55:37;19.02;;;9.70;;
42906;SDS011;28552;51.146;6.576;2022-12-07T08:58:37;22.73;;;10.63;;
42906;SDS011;28552;51.146;6.576;2022-12-07T09:01:38;20.05;;;10.38;;
42906;SDS011;28552;51.146;6.576;2022-12-07T09:04:39;21.92;;;11.00;;
42906;SDS011;28552;51.146;6.576;2022-12-07T09:07:39;21.02;;;10.18;;
42906;SDS011;28552;51.146;6.576;2022-12-07T09:10:41;24.63;;;10.77;;
42906;SDS011;28552;51.146;6.576;2022-12-07T09:13:42;22.13;;;10.52;;
42906;SDS011;28552;51.146;6.576;2022-12-07T09:16:42;26.25;;;11.00;;
42906;SDS011;28552;51.146;6.576;2022-12-07T09:19:43;23.45;;;11.07;;
42906;SDS011;28552;51.146;6.576;2022-12-07T09:22:43;20.45;;;10.88;;
42906;SDS011;28552;51.146;6.576;2022-12-07T09:25:44;19.67;;;9.57;;
42906;SDS011;28552;51.146;6.576;2022-12-07T09:28:44;23.35;;;11.23;;
42906;SDS011;28552;51.146;6.576;2022-12-07T09:31:45;20.10;;;10.20;;
42906;SDS011;28552;51.146;6.576;2022-12-07T09:34:45;20.90;;;9.70;;
42906;SDS011;28552;51.146;6.576;2022-12-07T09:37:46;22.40;;;10.63;;
42906;SDS011;28552;51.146;6.576;2022-12-07T09:40:48;23.38;;;10.43;;
42906;SDS011;28552;51.146;6.576;2022-12-07T09:43:48;23.10;;;10.77;;
42906;SDS011;28552;51.146;6.576;2022-12-07T09:46:49;17.55;;;8.68;;
42906;SDS011;28552;51.146;6.576;2022-12-07T09:49:53;20.23;;;9.05;;
42906;SDS011;28552;51.146;6.576;2022-12-07T09:53:07;26.70;;;11.05;;
42906;SDS011;28552;51.146;6.576;2022-12-07T09:56:13;22.80;;;10.07;;
42906;SDS011;28552;51.146;6.576;2022-12-07T09:59:17;24.88;;;10.38;;
42906;SDS011;28552;51.146;6.576;2022-12-07T10:05:44;25.88;;;10.63;;
42906;SDS011;28552;51.146;6.576;2022-12-07T10:08:48;24.25;;;11.20;;
42906;SDS011;28552;51.146;6.576;2022-12-07T10:15:06;18.83;;;9.88;;
42906;SDS011;28552;51.146;6.576;2022-12-07T10:18:16;22.90;;;9.52;;
42906;SDS011;28552;51.146;6.576;2022-12-07T10:21:21;25.85;;;10.60;;
42906;SDS011;28552;51.146;6.576;2022-12-07T10:24:24;20.92;;;8.50;;
42906;SDS011;28552;51.146;6.576;2022-12-07T10:27:26;21.40;;;9.30;;
42906;SDS011;28552;51.146;6.576;2022-12-07T10:30:30;17.83;;;8.60;;
42906;SDS011;28552;51.146;6.576;2022-12-07T10:36:50;21.52;;;9.27;;
42906;SDS011;28552;51.146;6.576;2022-12-07T10:39:52;16.20;;;7.55;;
42906;SDS011;28552;51.146;6.576;2022-12-07T10:53:16;24.02;;;9.50;;
42906;SDS011;28552;51.146;6.576;2022-12-07T10:56:46;17.02;;;7.93;;
42906;SDS011;28552;51.146;6.576;2022-12-07T11:00:01;18.40;;;8.15;;
42906;SDS011;28552;51.146;6.576;2022-12-07T11:03:06;18.15;;;8.60;;
42906;SDS011;28552;51.146;6.576;2022-12-07T11:06:34;21.60;;;9.63;;
42906;SDS011;28552;51.146;6.576;2022-12-07T11:16:19;13.27;;;7.20;;
42906;SDS011;28552;51.146;6.576;2022-12-07T11:25:47;20.20;;;9.63;;
42906;SDS011;28552;51.146;6.576;2022-12-07T11:32:41;25.42;;;9.27;;
42906;SDS011;28552;51.146;6.576;2022-12-07T11:35:56;15.48;;;7.05;;
42906;SDS011;28552;51.146;6.576;2022-12-07T11:42:21;15.48;;;7.10;;
42906;SDS011;28552;51.146;6.576;2022-12-07T11:45:26;17.52;;;7.43;;
42906;SDS011;28552;51.146;6.576;2022-12-07T11:48:33;18.63;;;7.20;;
42906;SDS011;28552;51.146;6.576;2022-12-07T11:51:38;19.13;;;7.97;;
42906;SDS011;28552;51.146;6.576;2022-12-07T11:54:40;16.05;;;7.00;;
42906;SDS011;28552;51.146;6.576;2022-12-07T11:57:45;19.67;;;7.88;;
42906;SDS011;28552;51.146;6.576;2022-12-07T12:00:53;15.68;;;6.85;;
42906;SDS011;28552;51.146;6.576;2022-12-07T12:05:12;15.00;;;6.70;;
42906;SDS011;28552;51.146;6.576;2022-12-07T12:07:34;14.32;;;6.40;;
42906;SDS011;28552;51.146;6.576;2022-12-07T12:10:45;17.40;;;6.55;;
42906;SDS011;28552;51.146;6.576;2022-12-07T12:17:40;13.93;;;5.07;;
42906;SDS011;28552;51.146;6.576;2022-12-07T12:21:00;14.65;;;5.47;;
42906;SDS011;28552;51.146;6.576;2022-12-07T12:24:09;11.63;;;5.28;;
42906;SDS011;28552;51.146;6.576;2022-12-07T12:27:19;19.08;;;5.68;;
42906;SDS011;28552;51.146;6.576;2022-12-07T12:30:33;12.50;;;5.82;;
42906;SDS011;28552;51.146;6.576;2022-12-07T12:33:37;11.52;;;4.93;;
42906;SDS011;28552;51.146;6.576;2022-12-07T12:40:07;13.65;;;4.18;;
42906;SDS011;28552;51.146;6.576;2022-12-07T12:46:55;12.88;;;5.93;;
42906;SDS011;28552;51.146;6.576;2022-12-07T12:56:33;10.10;;;4.10;;
42906;SDS011;28552;51.146;6.576;2022-12-07T13:02:51;10.75;;;3.95;;
42906;SDS011;28552;51.146;6.576;2022-12-07T13:09:22;9.77;;;3.67;;
42906;SDS011;28552;51.146;6.576;2022-12-07T13:12:26;12.15;;;4.45;;
42906;SDS011;28552;51.146;6.576;2022-12-07T13:18:45;12.90;;;4.25;;
42906;SDS011;28552;51.146;6.576;2022-12-07T13:21:46;9.63;;;4.00;;
42906;SDS011;28552;51.146;6.576;2022-12-07T13:24:46;10.95;;;4.35;;
42906;SDS011;28552;51.146;6.576;2022-12-07T13:27:50;15.40;;;5.28;;
42906;SDS011;28552;51.146;6.576;2022-12-07T13:30:59;12.35;;;4.30;;
42906;SDS011;28552;51.146;6.576;2022-12-07T13:34:05;13.15;;;4.30;;
42906;SDS011;28552;51.146;6.576;2022-12-07T13:40:25;11.32;;;3.72;;
42906;SDS011;28552;51.146;6.576;2022-12-07T13:43:26;12.02;;;4.00;;
42906;SDS011;28552;51.146;6.576;2022-12-07T13:46:30;15.32;;;3.60;;
42906;SDS011;28552;51.146;6.576;2022-12-07T13:49:46;8.48;;;3.38;;
42906;SDS011;28552;51.146;6.576;2022-12-07T13:52:48;7.60;;;3.00;;
42906;SDS011;28552;51.146;6.576;2022-12-07T13:55:49;8.20;;;4.15;;
42906;SDS011;28552;51.146;6.576;2022-12-07T13:58:50;9.98;;;2.95;;
42906;SDS011;28552;51.146;6.576;2022-12-07T14:01:51;7.90;;;3.63;;
42906;SDS011;28552;51.146;6.576;2022-12-07T14:05:05;9.02;;;3.28;;
42906;SDS011;28552;51.146;6.576;2022-12-07T14:11:16;10.27;;;3.28;;
42906;SDS011;28552;51.146;6.576;2022-12-07T14:14:20;10.15;;;3.70;;
42906;SDS011;28552;51.146;6.576;2022-12-07T14:17:25;10.30;;;4.53;;
42906;SDS011;28552;51.146;6.576;2022-12-07T14:20:28;9.30;;;3.47;;
42906;SDS011;28552;51.146;6.576;2022-12-07T14:23:29;10.45;;;4.30;;
42906;SDS011;28552;51.146;6.576;2022-12-07T14:26:29;9.50;;;3.70;;
42906;SDS011;28552;51.146;6.576;2022-12-07T14:29:31;11.63;;;2.90;;
42906;SDS011;28552;51.146;6.576;2022-12-07T14:32:34;6.75;;;3.13;;
42906;SDS011;28552;51.146;6.576;2022-12-07T14:35:37;6.68;;;2.85;;
42906;SDS011;28552;51.146;6.576;2022-12-07T14:38:40;7.13;;;3.03;;
42906;SDS011;28552;51.146;6.576;2022-12-07T14:41:41;10.23;;;3.92;;
42906;SDS011;28552;51.146;6.576;2022-12-07T14:44:56;7.40;;;3.40;;
42906;SDS011;28552;51.146;6.576;2022-12-07T14:47:57;9.10;;;3.92;;
42906;SDS011;28552;51.146;6.576;2022-12-07T14:50:58;9.93;;;3.28;;
42906;SDS011;28552;51.146;6.576;2022-12-07T14:53:58;10.05;;;2.97;;
42906;SDS011;28552;51.146;6.576;2022-12-07T14:56:59;7.35;;;3.10;;
42906;SDS011;28552;51.146;6.576;2022-12-07T15:00:00;5.75;;;2.13;;
42906;SDS011;28552;51.146;6.576;2022-12-07T15:03:02;10.02;;;2.95;;
42906;SDS011;28552;51.146;6.576;2022-12-07T15:06:03;6.40;;;2.63;;
42906;SDS011;28552;51.146;6.576;2022-12-07T15:09:04;8.32;;;2.92;;
42906;SDS011;28552;51.146;6.576;2022-12-07T15:12:05;7.00;;;3.08;;
42906;SDS011;28552;51.146;6.576;2022-12-07T15:15:06;6.20;;;2.28;;
42906;SDS011;28552;51.146;6.576;2022-12-07T15:18:06;8.63;;;2.90;;
42906;SDS011;28552;51.146;6.576;2022-12-07T15:21:12;13.70;;;3.00;;
42906;SDS011;28552;51.146;6.576;2022-12-07T15:24:14;7.43;;;2.58;;
42906;SDS011;28552;51.146;6.576;2022-12-07T15:27:14;7.90;;;3.13;;
42906;SDS011;28552;51.146;6.576;2022-12-07T15:30:15;6.35;;;2.90;;
42906;SDS011;28552;51.146;6.576;2022-12-07T15:33:16;7.47;;;2.95;;
42906;SDS011;28552;51.146;6.576;2022-12-07T15:36:18;11.48;;;4.13;;
42906;SDS011;28552;51.146;6.576;2022-12-07T15:39:21;10.65;;;3.17;;
42906;SDS011;28552;51.146;6.576;2022-12-07T15:42:22;11.50;;;3.70;;
42906;SDS011;28552;51.146;6.576;2022-12-07T15:45:22;13.20;;;3.97;;
42906;SDS011;28552;51.146;6.576;2022-12-07T15:48:23;16.33;;;3.87;;
42906;SDS011;28552;51.146;6.576;2022-12-07T15:51:23;8.90;;;3.17;;
42906;SDS011;28552;51.146;6.576;2022-12-07T15:54:25;6.47;;;2.92;;
42906;SDS011;28552;51.146;6.576;2022-12-07T15:57:27;18.48;;;3.25;;
42906;SDS011;28552;51.146;6.576;2022-12-07T16:00:28;6.07;;;2.38;;
42906;SDS011;28552;51.146;6.576;2022-12-07T16:03:28;11.88;;;3.72;;
42906;SDS011;28552;51.146;6.576;2022-12-07T16:06:29;10.65;;;3.63;;
42906;SDS011;28552;51.146;6.576;2022-12-07T16:09:29;6.72;;;3.05;;
42906;SDS011;28552;51.146;6.576;2022-12-07T16:12:30;8.02;;;4.15;;
42906;SDS011;28552;51.146;6.576;2022-12-07T16:15:30;13.68;;;5.45;;
42906;SDS011;28552;51.146;6.576;2022-12-07T16:18:31;11.60;;;5.68;;
42906;SDS011;28552;51.146;6.576;2022-12-07T16:21:31;9.93;;;5.22;;
42906;SDS011;28552;51.146;6.576;2022-12-07T16:24:33;10.00;;;5.20;;
42906;SDS011;28552;51.146;6.576;2022-12-07T16:27:34;14.68;;;4.97;;
42906;SDS011;28552;51.146;6.576;2022-12-07T16:30:34;13.18;;;5.38;;
42906;SDS011;28552;51.146;6.576;2022-12-07T16:33:35;11.95;;;5.68;;
42906;SDS011;28552;51.146;6.576;2022-12-07T16:36:37;13.23;;;5.97;;
42906;SDS011;28552;51.146;6.576;2022-12-07T16:39:38;11.95;;;5.05;;
42906;SDS011;28552;51.146;6.576;2022-12-07T16:42:38;15.15;;;5.50;;
42906;SDS011;28552;51.146;6.576;2022-12-07T16:45:39;11.50;;;5.85;;
42906;SDS011;28552;51.146;6.576;2022-12-07T16:48:39;11.85;;;5.05;;
42906;SDS011;28552;51.146;6.576;2022-12-07T16:51:40;12.88;;;6.78;;
42906;SDS011;28552;51.146;6.576;2022-12-07T16:54:43;14.27;;;6.80;;
42906;SDS011;28552;51.146;6.576;2022-12-07T16:57:43;14.13;;;5.85;;
42906;SDS011;28552;51.146;6.576;2022-12-07T17:00:44;14.80;;;6.95;;
42906;SDS011;28552;51.146;6.576;2022-12-07T17:03:45;13.18;;;5.72;;
42906;SDS011;28552;51.146;6.576;2022-12-07T17:06:46;12.63;;;5.55;;
42906;SDS011;28552;51.146;6.576;2022-12-07T17:09:46;13.27;;;6.35;;
42906;SDS011;28552;51.146;6.576;2022-12-07T17:12:47;13.15;;;6.10;;
42906;SDS011;28552;51.146;6.576;2022-12-07T17:19:06;15.35;;;6.15;;
42906;SDS011;28552;51.146;6.576;2022-12-07T17:22:08;15.95;;;6.78;;
42906;SDS011;28552;51.146;6.576;2022-12-07T17:25:11;14.48;;;6.43;;
42906;SDS011;28552;51.146;6.576;2022-12-07T17:28:12;16.98;;;7.00;;
42906;SDS011;28552;51.146;6.576;2022-12-07T17:31:14;14.43;;;7.13;;
42906;SDS011;28552;51.146;6.576;2022-12-07T17:34:16;16.83;;;8.10;;
42906;SDS011;28552;51.146;6.576;2022-12-07T17:37:16;15.05;;;7.18;;
42906;SDS011;28552;51.146;6.576;2022-12-07T17:40:17;16.42;;;6.95;;
42906;SDS011;28552;51.146;6.576;2022-12-07T17:43:18;18.50;;;8.35;;
42906;SDS011;28552;51.146;6.576;2022-12-07T17:46:18;15.07;;;6.55;;
42906;SDS011;28552;51.146;6.576;2022-12-07T17:49:18;15.93;;;7.20;;
42906;SDS011;28552;51.146;6.576;2022-12-07T17:52:19;16.63;;;7.75;;
42906;SDS011;28552;51.146;6.576;2022-12-07T17:55:35;14.82;;;7.85;;
42906;SDS011;28552;51.146;6.576;2022-12-07T17:58:35;19.25;;;8.82;;
42906;SDS011;28552;51.146;6.576;2022-12-07T18:01:36;17.80;;;8.05;;
42906;SDS011;28552;51.146;6.576;2022-12-07T18:04:37;16.63;;;7.28;;
42906;SDS011;28552;51.146;6.576;2022-12-07T18:07:40;21.50;;;9.13;;
42906;SDS011;28552;51.146;6.576;2022-12-07T18:10:41;19.77;;;8.25;;
42906;SDS011;28552;51.146;6.576;2022-12-07T18:13:42;16.80;;;8.15;;
42906;SDS011;28552;51.146;6.576;2022-12-07T18:16:42;17.08;;;8.40;;
42906;SDS011;28552;51.146;6.576;2022-12-07T18:19:43;18.55;;;9.07;;
42906;SDS011;28552;51.146;6.576;2022-12-07T18:22:43;18.30;;;8.82;;
42906;SDS011;28552;51.146;6.576;2022-12-07T18:25:46;21.35;;;7.97;;
42906;SDS011;28552;51.146;6.576;2022-12-07T18:28:47;17.35;;;6.93;;
42906;SDS011;28552;51.146;6.576;2022-12-07T18:31:48;14.88;;;7.75;;
42906;SDS011;28552;51.146;6.576;2022-12-07T18:34:49;21.00;;;9.95;;
42906;SDS011;28552;51.146;6.576;2022-12-07T18:37:49;19.25;;;8.90;;
42906;SDS011;28552;51.146;6.576;2022-12-07T18:40:50;21.10;;;7.97;;
42906;SDS011;28552;51.146;6.576;2022-12-07T18:43:50;22.50;;;7.90;;
42906;SDS011;28552;51.146;6.576;2022-12-07T18:46:51;16.65;;;7.43;;
42906;SDS011;28552;51.146;6.576;2022-12-07T18:49:51;15.63;;;7.68;;
42906;SDS011;28552;51.146;6.576;2022-12-07T18:52:52;18.42;;;8.40;;
42906;SDS011;28552;51.146;6.576;2022-12-07T18:56:03;18.75;;;9.30;;
42906;SDS011;28552;51.146;6.576;2022-12-07T18:59:05;19.10;;;8.20;;
42906;SDS011;28552;51.146;6.576;2022-12-07T19:02:21;18.92;;;8.82;;
42906;SDS011;28552;51.146;6.576;2022-12-07T19:05:22;22.27;;;7.90;;
42906;SDS011;28552;51.146;6.576;2022-12-07T19:08:23;17.27;;;6.95;;
42906;SDS011;28552;51.146;6.576;2022-12-07T19:11:25;17.98;;;6.78;;
42906;SDS011;28552;51.146;6.576;2022-12-07T19:14:47;20.88;;;7.18;;
42906;SDS011;28552;51.146;6.576;2022-12-07T19:17:48;17.27;;;8.25;;
42906;SDS011;28552;51.146;6.576;2022-12-07T19:20:48;19.40;;;8.07;;
42906;SDS011;28552;51.146;6.576;2022-12-07T19:23:49;18.60;;;8.88;;
42906;SDS011;28552;51.146;6.576;2022-12-07T19:26:50;18.58;;;8.30;;
42906;SDS011;28552;51.146;6.576;2022-12-07T19:29:51;19.77;;;7.80;;
42906;SDS011;28552;51.146;6.576;2022-12-07T19:32:52;19.88;;;7.63;;
42906;SDS011;28552;51.146;6.576;2022-12-07T19:35:52;18.35;;;8.18;;
42906;SDS011;28552;51.146;6.576;2022-12-07T19:38:53;20.38;;;6.72;;